sensor_id;sensor_type;location;lat;lon;timestamp;temperature;humidity
37786;DHT22;23625;48.784;9.336;2023-03-13T00:01:35;6.70;99.90
37786;DHT22;23625;48.784;9.336;2023-03-13T00:04:00;6.80;99.90
37786;DHT22;23625;48.784;9.336;2023-03-13T00:06:29;6.90;99.90
37786;DHT22;23625;48.784;9.336;2023-03-13T00:08:56;6.90;99.90
37786;DHT22;23625;48.784;9.336;2023-03-13T00:11:25;6.90;99.90
37786;DHT22;23625;48.784;9.336;2023-03-13T00:13:58;6.90;99.90
37786;DHT22;23625;48.784;9.336;2023-03-13T00:16:24;6.90;99.90
37786;DHT22;23625;48.784;9.336;2023-03-13T00:18:52;6.80;99.90
37786;DHT22;23625;48.784;9.336;2023-03-13T00:21:20;6.90;99.90
37786;DHT22;23625;48.784;9.336;2023-03-13T00:23:46;6.90;99.90
37786;DHT22;23625;48.784;9.336;2023-03-13T00:26:14;6.90;99.90
37786;DHT22;23625;48.784;9.336;2023-03-13T00:28:41;6.90;99.90
37786;DHT22;23625;48.784;9.336;2023-03-13T00:31:09;7.00;99.90
37786;DHT22;23625;48.784;9.336;2023-03-13T00:33:36;7.00;99.90
37786;DHT22;23625;48.784;9.336;2023-03-13T00:36:04;7.00;99.90
37786;DHT22;23625;48.784;9.336;2023-03-13T00:38:31;6.90;99.90
37786;DHT22;23625;48.784;9.336;2023-03-13T00:41:05;6.80;99.90
37786;DHT22;23625;48.784;9.336;2023-03-13T00:43:32;7.00;99.90
37786;DHT22;23625;48.784;9.336;2023-03-13T00:45:57;7.00;99.90
37786;DHT22;23625;48.784;9.336;2023-03-13T00:48:23;7.00;99.90
37786;DHT22;23625;48.784;9.336;2023-03-13T00:50:49;7.00;99.90
37786;DHT22;23625;48.784;9.336;2023-03-13T00:53:15;7.10;99.90
37786;DHT22;23625;48.784;9.336;2023-03-13T00:58:25;7.20;99.90
37786;DHT22;23625;48.784;9.336;2023-03-13T01:00:51;7.20;99.90
37786;DHT22;23625;48.784;9.336;2023-03-13T01:03:18;7.20;99.90
37786;DHT22;23625;48.784;9.336;2023-03-13T01:05:43;7.30;99.90
37786;DHT22;23625;48.784;9.336;2023-03-13T01:08:09;7.30;99.90
37786;DHT22;23625;48.784;9.336;2023-03-13T01:10:34;7.40;99.90
37786;DHT22;23625;48.784;9.336;2023-03-13T01:13:00;7.40;99.90
37786;DHT22;23625;48.784;9.336;2023-03-13T01:15:26;7.50;99.90
37786;DHT22;23625;48.784;9.336;2023-03-13T01:17:51;7.60;99.90
37786;DHT22;23625;48.784;9.336;2023-03-13T01:20:17;7.80;99.90
37786;DHT22;23625;48.784;9.336;2023-03-13T01:22:43;7.90;99.90
37786;DHT22;23625;48.784;9.336;2023-03-13T01:25:08;7.90;99.90
37786;DHT22;23625;48.784;9.336;2023-03-13T01:27:34;7.90;99.90
37786;DHT22;23625;48.784;9.336;2023-03-13T01:29:59;7.90;99.90
37786;DHT22;23625;48.784;9.336;2023-03-13T01:32:25;8.10;99.90
37786;DHT22;23625;48.784;9.336;2023-03-13T01:34:51;8.10;99.90
37786;DHT22;23625;48.784;9.336;2023-03-13T01:37:16;8.10;99.90
37786;DHT22;23625;48.784;9.336;2023-03-13T01:39:42;8.20;99.90
37786;DHT22;23625;48.784;9.336;2023-03-13T01:42:07;8.30;99.90
37786;DHT22;23625;48.784;9.336;2023-03-13T01:44:51;8.40;99.90
37786;DHT22;23625;48.784;9.336;2023-03-13T01:47:16;8.40;99.90
37786;DHT22;23625;48.784;9.336;2023-03-13T01:49:42;8.40;99.90
37786;DHT22;23625;48.784;9.336;2023-03-13T01:52:28;8.40;99.90
37786;DHT22;23625;48.784;9.336;2023-03-13T01:55:11;8.50;99.90
37786;DHT22;23625;48.784;9.336;2023-03-13T01:57:41;8.60;99.90
37786;DHT22;23625;48.784;9.336;2023-03-13T02:00:12;8.70;99.90
37786;DHT22;23625;48.784;9.336;2023-03-13T02:02:43;8.80;99.90
37786;DHT22;23625;48.784;9.336;2023-03-13T02:05:12;9.10;99.90
37786;DHT22;23625;48.784;9.336;2023-03-13T02:07:49;9.10;99.90
37786;DHT22;23625;48.784;9.336;2023-03-13T02:10:16;9.10;99.90
37786;DHT22;23625;48.784;9.336;2023-03-13T02:12:42;9.20;99.90
37786;DHT22;23625;48.784;9.336;2023-03-13T02:15:12;9.20;99.90
37786;DHT22;23625;48.784;9.336;2023-03-13T02:17:39;9.20;99.90
37786;DHT22;23625;48.784;9.336;2023-03-13T02:20:06;9.30;99.90
37786;DHT22;23625;48.784;9.336;2023-03-13T02:25:41;9.40;99.90
37786;DHT22;23625;48.784;9.336;2023-03-13T02:28:11;9.50;99.90
37786;DHT22;23625;48.784;9.336;2023-03-13T02:30:39;9.50;99.90
37786;DHT22;23625;48.784;9.336;2023-03-13T02:33:06;9.50;99.90
37786;DHT22;23625;48.784;9.336;2023-03-13T02:35:32;9.60;99.90
37786;DHT22;23625;48.784;9.336;2023-03-13T02:38:03;9.70;99.90
37786;DHT22;23625;48.784;9.336;2023-03-13T02:40:32;9.70;99.90
37786;DHT22;23625;48.784;9.336;2023-03-13T02:43:01;9.70;99.90
37786;DHT22;23625;48.784;9.336;2023-03-13T02:45:27;9.70;99.90
37786;DHT22;23625;48.784;9.336;2023-03-13T02:47:52;9.60;99.90
37786;DHT22;23625;48.784;9.336;2023-03-13T02:50:18;9.80;99.90
37786;DHT22;23625;48.784;9.336;2023-03-13T02:52:48;9.80;99.90
37786;DHT22;23625;48.784;9.336;2023-03-13T02:55:21;9.80;99.90
37786;DHT22;23625;48.784;9.336;2023-03-13T02:57:49;9.80;99.90
37786;DHT22;23625;48.784;9.336;2023-03-13T03:00:15;9.90;99.90
37786;DHT22;23625;48.784;9.336;2023-03-13T03:02:42;9.90;99.90
37786;DHT22;23625;48.784;9.336;2023-03-13T03:05:08;9.80;99.90
37786;DHT22;23625;48.784;9.336;2023-03-13T03:07:34;10.00;99.90
37786;DHT22;23625;48.784;9.336;2023-03-13T03:10:00;9.90;99.90
37786;DHT22;23625;48.784;9.336;2023-03-13T03:12:25;9.90;99.90
37786;DHT22;23625;48.784;9.336;2023-03-13T03:14:51;9.90;99.90
37786;DHT22;23625;48.784;9.336;2023-03-13T03:17:16;9.90;99.90
37786;DHT22;23625;48.784;9.336;2023-03-13T03:19:42;10.00;99.90
37786;DHT22;23625;48.784;9.336;2023-03-13T03:22:08;10.10;99.90
37786;DHT22;23625;48.784;9.336;2023-03-13T03:24:33;10.20;99.90
37786;DHT22;23625;48.784;9.336;2023-03-13T03:26:59;10.20;99.90
37786;DHT22;23625;48.784;9.336;2023-03-13T03:29:25;10.30;99.90
37786;DHT22;23625;48.784;9.336;2023-03-13T03:31:52;10.30;99.90
37786;DHT22;23625;48.784;9.336;2023-03-13T03:34:17;10.30;99.90
37786;DHT22;23625;48.784;9.336;2023-03-13T03:36:43;10.30;99.90
37786;DHT22;23625;48.784;9.336;2023-03-13T03:39:08;10.30;99.90
37786;DHT22;23625;48.784;9.336;2023-03-13T03:41:34;10.20;99.90
37786;DHT22;23625;48.784;9.336;2023-03-13T03:44:02;10.20;99.90
37786;DHT22;23625;48.784;9.336;2023-03-13T03:46:28;10.20;99.90
37786;DHT22;23625;48.784;9.336;2023-03-13T03:48:54;10.10;99.90
37786;DHT22;23625;48.784;9.336;2023-03-13T03:51:20;10.00;99.90
37786;DHT22;23625;48.784;9.336;2023-03-13T03:53:46;10.00;99.90
37786;DHT22;23625;48.784;9.336;2023-03-13T03:56:11;10.00;99.90
37786;DHT22;23625;48.784;9.336;2023-03-13T03:58:37;10.10;99.90
37786;DHT22;23625;48.784;9.336;2023-03-13T04:01:03;10.00;99.90
37786;DHT22;23625;48.784;9.336;2023-03-13T04:03:29;10.10;99.90
37786;DHT22;23625;48.784;9.336;2023-03-13T04:05:54;10.10;99.90
37786;DHT22;23625;48.784;9.336;2023-03-13T04:08:20;10.10;99.90
37786;DHT22;23625;48.784;9.336;2023-03-13T04:10:46;10.10;99.90
37786;DHT22;23625;48.784;9.336;2023-03-13T04:13:11;10.10;99.90
37786;DHT22;23625;48.784;9.336;2023-03-13T04:15:38;10.30;99.90
37786;DHT22;23625;48.784;9.336;2023-03-13T04:18:04;10.40;99.90
37786;DHT22;23625;48.784;9.336;2023-03-13T04:20:30;10.40;99.90
37786;DHT22;23625;48.784;9.336;2023-03-13T04:22:55;10.50;99.90
37786;DHT22;23625;48.784;9.336;2023-03-13T04:25:21;10.50;99.90
37786;DHT22;23625;48.784;9.336;2023-03-13T04:27:46;10.60;99.90
37786;DHT22;23625;48.784;9.336;2023-03-13T04:30:13;10.60;99.90
37786;DHT22;23625;48.784;9.336;2023-03-13T04:32:39;10.70;99.90
37786;DHT22;23625;48.784;9.336;2023-03-13T04:35:05;10.70;99.90
37786;DHT22;23625;48.784;9.336;2023-03-13T04:37:30;10.80;99.90
37786;DHT22;23625;48.784;9.336;2023-03-13T04:39:56;10.80;99.90
37786;DHT22;23625;48.784;9.336;2023-03-13T04:42:22;10.90;99.90
37786;DHT22;23625;48.784;9.336;2023-03-13T04:44:48;10.90;99.90
37786;DHT22;23625;48.784;9.336;2023-03-13T04:47:13;11.10;99.90
37786;DHT22;23625;48.784;9.336;2023-03-13T04:49:39;11.20;99.90
37786;DHT22;23625;48.784;9.336;2023-03-13T04:52:05;11.20;99.90
37786;DHT22;23625;48.784;9.336;2023-03-13T04:54:31;11.10;99.90
37786;DHT22;23625;48.784;9.336;2023-03-13T04:56:56;11.10;99.90
37786;DHT22;23625;48.784;9.336;2023-03-13T04:59:22;11.10;99.90
37786;DHT22;23625;48.784;9.336;2023-03-13T05:01:47;11.10;99.90
37786;DHT22;23625;48.784;9.336;2023-03-13T05:04:13;11.10;99.90
37786;DHT22;23625;48.784;9.336;2023-03-13T05:06:40;11.10;99.90
37786;DHT22;23625;48.784;9.336;2023-03-13T05:09:05;11.10;99.90
37786;DHT22;23625;48.784;9.336;2023-03-13T05:11:31;11.30;99.90
37786;DHT22;23625;48.784;9.336;2023-03-13T05:13:57;11.30;99.90
37786;DHT22;23625;48.784;9.336;2023-03-13T05:16:22;11.40;99.90
37786;DHT22;23625;48.784;9.336;2023-03-13T05:18:48;11.30;99.90
37786;DHT22;23625;48.784;9.336;2023-03-13T05:21:14;11.30;99.90
37786;DHT22;23625;48.784;9.336;2023-03-13T05:23:39;11.30;99.90
37786;DHT22;23625;48.784;9.336;2023-03-13T05:26:05;11.30;99.90
37786;DHT22;23625;48.784;9.336;2023-03-13T05:28:30;11.30;99.90
37786;DHT22;23625;48.784;9.336;2023-03-13T05:30:56;11.30;99.90
37786;DHT22;23625;48.784;9.336;2023-03-13T05:33:22;11.30;99.90
37786;DHT22;23625;48.784;9.336;2023-03-13T05:35:48;11.50;99.90
37786;DHT22;23625;48.784;9.336;2023-03-13T05:38:14;11.60;99.90
37786;DHT22;23625;48.784;9.336;2023-03-13T05:40:39;11.60;99.90
37786;DHT22;23625;48.784;9.336;2023-03-13T05:43:05;11.50;99.90
37786;DHT22;23625;48.784;9.336;2023-03-13T05:45:31;11.60;99.90
37786;DHT22;23625;48.784;9.336;2023-03-13T05:47:56;11.60;99.90
37786;DHT22;23625;48.784;9.336;2023-03-13T05:50:25;11.70;99.90
37786;DHT22;23625;48.784;9.336;2023-03-13T05:52:51;11.60;99.90
37786;DHT22;23625;48.784;9.336;2023-03-13T05:55:17;11.70;99.90
37786;DHT22;23625;48.784;9.336;2023-03-13T05:57:44;11.70;99.90
37786;DHT22;23625;48.784;9.336;2023-03-13T06:00:12;11.70;99.90
37786;DHT22;23625;48.784;9.336;2023-03-13T06:02:38;11.40;99.90
37786;DHT22;23625;48.784;9.336;2023-03-13T06:05:03;11.70;99.90
37786;DHT22;23625;48.784;9.336;2023-03-13T06:07:29;11.70;99.90
37786;DHT22;23625;48.784;9.336;2023-03-13T06:09:54;11.70;99.90
37786;DHT22;23625;48.784;9.336;2023-03-13T06:12:20;11.70;99.90
37786;DHT22;23625;48.784;9.336;2023-03-13T06:14:46;11.70;99.90
37786;DHT22;23625;48.784;9.336;2023-03-13T06:17:11;11.70;99.90
37786;DHT22;23625;48.784;9.336;2023-03-13T06:19:37;11.70;99.90
37786;DHT22;23625;48.784;9.336;2023-03-13T06:22:02;11.70;99.90
37786;DHT22;23625;48.784;9.336;2023-03-13T06:24:28;11.80;99.90
37786;DHT22;23625;48.784;9.336;2023-03-13T06:26:53;11.80;99.90
37786;DHT22;23625;48.784;9.336;2023-03-13T06:29:19;11.90;99.90
37786;DHT22;23625;48.784;9.336;2023-03-13T06:31:45;11.90;99.90
37786;DHT22;23625;48.784;9.336;2023-03-13T06:34:12;12.00;99.90
37786;DHT22;23625;48.784;9.336;2023-03-13T06:36:38;12.10;99.90
37786;DHT22;23625;48.784;9.336;2023-03-13T06:39:03;12.10;99.90
37786;DHT22;23625;48.784;9.336;2023-03-13T06:41:29;12.10;99.90
37786;DHT22;23625;48.784;9.336;2023-03-13T06:43:55;12.20;99.90
37786;DHT22;23625;48.784;9.336;2023-03-13T06:46:22;12.30;99.90
37786;DHT22;23625;48.784;9.336;2023-03-13T06:48:49;12.40;99.90
37786;DHT22;23625;48.784;9.336;2023-03-13T06:51:17;12.40;99.90
37786;DHT22;23625;48.784;9.336;2023-03-13T06:53:43;12.40;99.90
37786;DHT22;23625;48.784;9.336;2023-03-13T06:56:09;12.50;99.90
37786;DHT22;23625;48.784;9.336;2023-03-13T06:58:35;12.40;99.90
37786;DHT22;23625;48.784;9.336;2023-03-13T07:01:12;12.50;99.90
37786;DHT22;23625;48.784;9.336;2023-03-13T07:03:38;12.60;99.90
37786;DHT22;23625;48.784;9.336;2023-03-13T07:06:05;12.60;99.90
37786;DHT22;23625;48.784;9.336;2023-03-13T07:08:32;12.70;99.90
37786;DHT22;23625;48.784;9.336;2023-03-13T07:11:00;12.60;99.90
37786;DHT22;23625;48.784;9.336;2023-03-13T07:13:26;12.70;99.90
37786;DHT22;23625;48.784;9.336;2023-03-13T07:15:52;12.60;99.90
37786;DHT22;23625;48.784;9.336;2023-03-13T07:18:18;12.70;99.90
37786;DHT22;23625;48.784;9.336;2023-03-13T07:20:44;12.80;99.90
37786;DHT22;23625;48.784;9.336;2023-03-13T07:23:09;12.80;99.90
37786;DHT22;23625;48.784;9.336;2023-03-13T07:25:35;12.80;99.90
37786;DHT22;23625;48.784;9.336;2023-03-13T07:28:00;12.80;99.90
37786;DHT22;23625;48.784;9.336;2023-03-13T07:30:27;12.80;99.90
37786;DHT22;23625;48.784;9.336;2023-03-13T07:32:52;12.80;99.90
37786;DHT22;23625;48.784;9.336;2023-03-13T07:35:18;12.80;99.90
37786;DHT22;23625;48.784;9.336;2023-03-13T07:37:44;12.90;99.90
37786;DHT22;23625;48.784;9.336;2023-03-13T07:40:10;12.90;99.90
37786;DHT22;23625;48.784;9.336;2023-03-13T07:42:39;12.90;99.90
37786;DHT22;23625;48.784;9.336;2023-03-13T07:45:04;12.90;99.90
37786;DHT22;23625;48.784;9.336;2023-03-13T07:47:33;12.90;99.90
37786;DHT22;23625;48.784;9.336;2023-03-13T07:49:58;12.90;99.90
37786;DHT22;23625;48.784;9.336;2023-03-13T07:52:24;12.90;99.90
37786;DHT22;23625;48.784;9.336;2023-03-13T07:54:50;12.90;99.90
37786;DHT22;23625;48.784;9.336;2023-03-13T07:57:16;13.00;99.90
37786;DHT22;23625;48.784;9.336;2023-03-13T07:59:41;13.00;99.90
37786;DHT22;23625;48.784;9.336;2023-03-13T08:02:10;12.90;99.90
37786;DHT22;23625;48.784;9.336;2023-03-13T08:04:36;13.00;99.90
37786;DHT22;23625;48.784;9.336;2023-03-13T08:07:02;13.00;99.90
37786;DHT22;23625;48.784;9.336;2023-03-13T08:09:31;13.20;99.90
37786;DHT22;23625;48.784;9.336;2023-03-13T08:11:56;13.20;99.90
37786;DHT22;23625;48.784;9.336;2023-03-13T08:14:22;13.10;99.90
37786;DHT22;23625;48.784;9.336;2023-03-13T08:16:48;13.20;99.90
37786;DHT22;23625;48.784;9.336;2023-03-13T08:19:13;13.30;99.90
37786;DHT22;23625;48.784;9.336;2023-03-13T08:21:39;13.30;99.90
37786;DHT22;23625;48.784;9.336;2023-03-13T08:24:07;13.50;99.90
37786;DHT22;23625;48.784;9.336;2023-03-13T08:26:34;13.40;99.90
37786;DHT22;23625;48.784;9.336;2023-03-13T08:29:05;13.50;99.90
37786;DHT22;23625;48.784;9.336;2023-03-13T08:31:34;13.60;99.90
37786;DHT22;23625;48.784;9.336;2023-03-13T08:34:00;13.70;99.90
37786;DHT22;23625;48.784;9.336;2023-03-13T08:36:36;13.80;99.90
37786;DHT22;23625;48.784;9.336;2023-03-13T08:39:04;14.00;99.90
37786;DHT22;23625;48.784;9.336;2023-03-13T08:41:32;14.20;99.90
37786;DHT22;23625;48.784;9.336;2023-03-13T08:44:03;14.30;99.90
37786;DHT22;23625;48.784;9.336;2023-03-13T08:46:30;14.40;99.90
37786;DHT22;23625;48.784;9.336;2023-03-13T08:48:56;14.50;99.90
37786;DHT22;23625;48.784;9.336;2023-03-13T08:51:24;14.40;99.90
37786;DHT22;23625;48.784;9.336;2023-03-13T08:53:51;14.40;99.90
37786;DHT22;23625;48.784;9.336;2023-03-13T08:56:19;14.40;99.90
37786;DHT22;23625;48.784;9.336;2023-03-13T08:58:56;14.50;99.90
37786;DHT22;23625;48.784;9.336;2023-03-13T09:01:24;14.60;99.90
37786;DHT22;23625;48.784;9.336;2023-03-13T09:03:50;14.50;99.90
37786;DHT22;23625;48.784;9.336;2023-03-13T09:06:17;14.60;99.90
37786;DHT22;23625;48.784;9.336;2023-03-13T09:08:43;14.60;99.90
37786;DHT22;23625;48.784;9.336;2023-03-13T09:11:12;14.70;99.90
37786;DHT22;23625;48.784;9.336;2023-03-13T09:13:40;14.60;99.90
37786;DHT22;23625;48.784;9.336;2023-03-13T09:16:09;14.60;99.90
37786;DHT22;23625;48.784;9.336;2023-03-13T09:18:35;14.70;99.90
37786;DHT22;23625;48.784;9.336;2023-03-13T09:21:01;14.70;99.90
37786;DHT22;23625;48.784;9.336;2023-03-13T09:23:27;14.70;99.90
37786;DHT22;23625;48.784;9.336;2023-03-13T09:25:54;14.70;99.90
37786;DHT22;23625;48.784;9.336;2023-03-13T09:28:22;14.80;99.90
37786;DHT22;23625;48.784;9.336;2023-03-13T09:30:47;14.80;99.90
37786;DHT22;23625;48.784;9.336;2023-03-13T09:33:17;14.90;99.90
37786;DHT22;23625;48.784;9.336;2023-03-13T09:35:43;15.00;99.90
37786;DHT22;23625;48.784;9.336;2023-03-13T09:38:11;15.10;99.90
37786;DHT22;23625;48.784;9.336;2023-03-13T09:40:40;15.10;99.90
37786;DHT22;23625;48.784;9.336;2023-03-13T09:43:29;15.10;99.90
37786;DHT22;23625;48.784;9.336;2023-03-13T09:46:02;15.10;99.90
37786;DHT22;23625;48.784;9.336;2023-03-13T09:51:06;15.30;99.90
37786;DHT22;23625;48.784;9.336;2023-03-13T09:56:16;15.30;99.90
37786;DHT22;23625;48.784;9.336;2023-03-13T09:58:49;15.40;99.90
37786;DHT22;23625;48.784;9.336;2023-03-13T10:01:21;15.40;99.90
37786;DHT22;23625;48.784;9.336;2023-03-13T10:04:19;15.50;99.90
37786;DHT22;23625;48.784;9.336;2023-03-13T10:06:48;15.50;99.90
37786;DHT22;23625;48.784;9.336;2023-03-13T10:09:27;15.50;99.90
37786;DHT22;23625;48.784;9.336;2023-03-13T10:14:30;16.00;99.60
37786;DHT22;23625;48.784;9.336;2023-03-13T10:19:50;16.20;98.80
37786;DHT22;23625;48.784;9.336;2023-03-13T10:22:23;16.20;97.10
37786;DHT22;23625;48.784;9.336;2023-03-13T10:24:59;16.60;96.50
37786;DHT22;23625;48.784;9.336;2023-03-13T10:27:27;16.90;94.10
37786;DHT22;23625;48.784;9.336;2023-03-13T10:29:52;17.20;91.10
37786;DHT22;23625;48.784;9.336;2023-03-13T10:32:18;17.40;89.80
37786;DHT22;23625;48.784;9.336;2023-03-13T10:35:03;17.40;90.60
37786;DHT22;23625;48.784;9.336;2023-03-13T10:37:41;17.20;84.70
37786;DHT22;23625;48.784;9.336;2023-03-13T10:40:24;17.40;83.70
37786;DHT22;23625;48.784;9.336;2023-03-13T10:42:52;17.70;83.40
37786;DHT22;23625;48.784;9.336;2023-03-13T10:45:21;17.70;80.40
37786;DHT22;23625;48.784;9.336;2023-03-13T10:47:59;17.60;81.50
37786;DHT22;23625;48.784;9.336;2023-03-13T10:50:30;17.70;81.80
37786;DHT22;23625;48.784;9.336;2023-03-13T10:52:56;17.80;82.00
37786;DHT22;23625;48.784;9.336;2023-03-13T10:55:24;17.80;82.40
37786;DHT22;23625;48.784;9.336;2023-03-13T10:58:01;17.90;79.10
37786;DHT22;23625;48.784;9.336;2023-03-13T11:02:56;17.70;79.40
37786;DHT22;23625;48.784;9.336;2023-03-13T11:07:52;17.60;82.40
37786;DHT22;23625;48.784;9.336;2023-03-13T11:12:52;17.90;78.60
37786;DHT22;23625;48.784;9.336;2023-03-13T11:15:44;18.00;78.70
37786;DHT22;23625;48.784;9.336;2023-03-13T11:21:00;18.00;77.60
37786;DHT22;23625;48.784;9.336;2023-03-13T11:23:40;17.90;79.20
37786;DHT22;23625;48.784;9.336;2023-03-13T11:29:02;17.90;79.80
37786;DHT22;23625;48.784;9.336;2023-03-13T11:31:38;17.90;79.50
37786;DHT22;23625;48.784;9.336;2023-03-13T11:34:21;17.90;78.50
37786;DHT22;23625;48.784;9.336;2023-03-13T11:37:08;17.70;79.80
37786;DHT22;23625;48.784;9.336;2023-03-13T11:39:52;17.70;79.10
37786;DHT22;23625;48.784;9.336;2023-03-13T12:01:40;19.80;68.40
37786;DHT22;23625;48.784;9.336;2023-03-13T12:04:24;19.90;68.80
37786;DHT22;23625;48.784;9.336;2023-03-13T12:07:04;19.90;67.10
37786;DHT22;23625;48.784;9.336;2023-03-13T12:09:36;19.80;67.00
37786;DHT22;23625;48.784;9.336;2023-03-13T12:12:29;19.90;67.70
37786;DHT22;23625;48.784;9.336;2023-03-13T12:17:39;20.00;65.50
37786;DHT22;23625;48.784;9.336;2023-03-13T12:20:24;20.00;65.70
37786;DHT22;23625;48.784;9.336;2023-03-13T12:23:15;20.10;67.70
37786;DHT22;23625;48.784;9.336;2023-03-13T12:25:55;20.30;65.50
37786;DHT22;23625;48.784;9.336;2023-03-13T12:28:33;20.70;64.70
37786;DHT22;23625;48.784;9.336;2023-03-13T12:31:06;20.90;63.40
37786;DHT22;23625;48.784;9.336;2023-03-13T12:36:43;20.70;61.80
37786;DHT22;23625;48.784;9.336;2023-03-13T12:39:19;20.50;62.90
37786;DHT22;23625;48.784;9.336;2023-03-13T12:44:32;21.00;62.10
37786;DHT22;23625;48.784;9.336;2023-03-13T12:47:19;21.20;61.80
37786;DHT22;23625;48.784;9.336;2023-03-13T12:49:57;21.20;60.10
37786;DHT22;23625;48.784;9.336;2023-03-13T13:00:34;21.20;58.70
37786;DHT22;23625;48.784;9.336;2023-03-13T13:06:04;21.70;58.70
37786;DHT22;23625;48.784;9.336;2023-03-13T13:08:43;22.20;58.80
37786;DHT22;23625;48.784;9.336;2023-03-13T13:16:48;22.30;56.40
37786;DHT22;23625;48.784;9.336;2023-03-13T13:37:38;22.30;57.20
37786;DHT22;23625;48.784;9.336;2023-03-13T13:40:29;22.50;55.20
37786;DHT22;23625;48.784;9.336;2023-03-13T13:43:01;22.40;55.00
37786;DHT22;23625;48.784;9.336;2023-03-13T13:45:38;22.20;53.80
37786;DHT22;23625;48.784;9.336;2023-03-13T13:53:47;21.60;55.40
37786;DHT22;23625;48.784;9.336;2023-03-13T14:01:36;21.40;56.00
37786;DHT22;23625;48.784;9.336;2023-03-13T14:04:28;21.40;56.00
37786;DHT22;23625;48.784;9.336;2023-03-13T14:06:56;21.50;55.80
37786;DHT22;23625;48.784;9.336;2023-03-13T14:09:48;21.50;56.30
37786;DHT22;23625;48.784;9.336;2023-03-13T14:12:35;21.60;55.70
37786;DHT22;23625;48.784;9.336;2023-03-13T14:15:21;21.60;55.90
37786;DHT22;23625;48.784;9.336;2023-03-13T14:18:15;21.50;57.00
37786;DHT22;23625;48.784;9.336;2023-03-13T14:23:14;21.60;56.00
37786;DHT22;23625;48.784;9.336;2023-03-13T14:25:47;21.60;55.50
37786;DHT22;23625;48.784;9.336;2023-03-13T14:28:24;21.60;55.00
37786;DHT22;23625;48.784;9.336;2023-03-13T14:30:59;21.50;56.90
37786;DHT22;23625;48.784;9.336;2023-03-13T14:33:26;21.50;55.20
37786;DHT22;23625;48.784;9.336;2023-03-13T14:35:52;21.70;54.70
37786;DHT22;23625;48.784;9.336;2023-03-13T14:38:21;21.70;54.80
37786;DHT22;23625;48.784;9.336;2023-03-13T14:40:47;22.00;55.20
37786;DHT22;23625;48.784;9.336;2023-03-13T14:43:43;22.20;54.00
37786;DHT22;23625;48.784;9.336;2023-03-13T14:46:29;22.00;54.20
37786;DHT22;23625;48.784;9.336;2023-03-13T14:48:55;21.90;54.90
37786;DHT22;23625;48.784;9.336;2023-03-13T14:51:24;21.80;54.60
37786;DHT22;23625;48.784;9.336;2023-03-13T14:54:01;21.80;55.60
37786;DHT22;23625;48.784;9.336;2023-03-13T14:56:35;22.00;55.90
37786;DHT22;23625;48.784;9.336;2023-03-13T14:59:18;21.90;55.90
37786;DHT22;23625;48.784;9.336;2023-03-13T15:04:57;21.50;56.20
37786;DHT22;23625;48.784;9.336;2023-03-13T15:07:47;21.40;56.60
37786;DHT22;23625;48.784;9.336;2023-03-13T15:10:21;21.30;56.80
37786;DHT22;23625;48.784;9.336;2023-03-13T15:12:48;21.40;57.50
37786;DHT22;23625;48.784;9.336;2023-03-13T15:15:14;21.60;57.30
37786;DHT22;23625;48.784;9.336;2023-03-13T15:17:40;21.80;57.00
37786;DHT22;23625;48.784;9.336;2023-03-13T15:20:06;22.00;56.40
37786;DHT22;23625;48.784;9.336;2023-03-13T15:22:38;22.10;55.70
37786;DHT22;23625;48.784;9.336;2023-03-13T15:27:38;22.20;54.40
37786;DHT22;23625;48.784;9.336;2023-03-13T15:30:05;22.00;54.30
37786;DHT22;23625;48.784;9.336;2023-03-13T15:32:37;21.90;55.80
37786;DHT22;23625;48.784;9.336;2023-03-13T15:35:25;22.10;55.70
37786;DHT22;23625;48.784;9.336;2023-03-13T15:37:51;22.00;55.80
37786;DHT22;23625;48.784;9.336;2023-03-13T15:40:18;22.00;55.80
37786;DHT22;23625;48.784;9.336;2023-03-13T15:42:44;21.90;55.60
37786;DHT22;23625;48.784;9.336;2023-03-13T15:45:10;22.00;56.30
37786;DHT22;23625;48.784;9.336;2023-03-13T15:47:35;22.20;54.50
37786;DHT22;23625;48.784;9.336;2023-03-13T15:50:01;21.90;54.80
37786;DHT22;23625;48.784;9.336;2023-03-13T15:52:28;21.80;55.20
37786;DHT22;23625;48.784;9.336;2023-03-13T15:54:53;21.80;55.70
37786;DHT22;23625;48.784;9.336;2023-03-13T15:57:22;21.80;55.80
37786;DHT22;23625;48.784;9.336;2023-03-13T15:59:49;21.60;55.70
37786;DHT22;23625;48.784;9.336;2023-03-13T16:02:22;21.60;55.80
37786;DHT22;23625;48.784;9.336;2023-03-13T16:04:48;21.60;55.80
37786;DHT22;23625;48.784;9.336;2023-03-13T16:07:16;21.50;56.30
37786;DHT22;23625;48.784;9.336;2023-03-13T16:09:43;21.30;56.40
37786;DHT22;23625;48.784;9.336;2023-03-13T16:12:10;21.20;57.30
37786;DHT22;23625;48.784;9.336;2023-03-13T16:14:36;21.20;57.40
37786;DHT22;23625;48.784;9.336;2023-03-13T16:17:09;21.10;57.50
37786;DHT22;23625;48.784;9.336;2023-03-13T16:19:36;21.10;57.80
37786;DHT22;23625;48.784;9.336;2023-03-13T16:22:01;21.10;57.90
37786;DHT22;23625;48.784;9.336;2023-03-13T16:24:27;21.00;58.10
37786;DHT22;23625;48.784;9.336;2023-03-13T16:26:53;20.90;58.00
37786;DHT22;23625;48.784;9.336;2023-03-13T16:29:18;20.80;59.00
37786;DHT22;23625;48.784;9.336;2023-03-13T16:31:44;20.80;59.50
37786;DHT22;23625;48.784;9.336;2023-03-13T16:34:09;20.60;59.80
37786;DHT22;23625;48.784;9.336;2023-03-13T16:36:35;20.50;60.50
37786;DHT22;23625;48.784;9.336;2023-03-13T16:39:04;20.40;61.00
37786;DHT22;23625;48.784;9.336;2023-03-13T16:41:33;20.20;62.30
37786;DHT22;23625;48.784;9.336;2023-03-13T16:43:58;20.10;62.50
37786;DHT22;23625;48.784;9.336;2023-03-13T16:46:31;20.10;62.90
37786;DHT22;23625;48.784;9.336;2023-03-13T16:48:58;19.90;63.30
37786;DHT22;23625;48.784;9.336;2023-03-13T16:51:25;19.80;64.20
37786;DHT22;23625;48.784;9.336;2023-03-13T16:53:52;19.70;64.80
37786;DHT22;23625;48.784;9.336;2023-03-13T16:56:32;19.60;65.30
37786;DHT22;23625;48.784;9.336;2023-03-13T16:58:59;19.50;65.60
37786;DHT22;23625;48.784;9.336;2023-03-13T17:01:25;19.40;67.20
37786;DHT22;23625;48.784;9.336;2023-03-13T17:03:55;19.30;68.10
37786;DHT22;23625;48.784;9.336;2023-03-13T17:06:30;19.00;71.10
37786;DHT22;23625;48.784;9.336;2023-03-13T17:08:57;18.80;75.00
37786;DHT22;23625;48.784;9.336;2023-03-13T17:11:23;18.50;77.80
37786;DHT22;23625;48.784;9.336;2023-03-13T17:13:50;18.30;79.80
37786;DHT22;23625;48.784;9.336;2023-03-13T17:16:34;18.10;81.60
37786;DHT22;23625;48.784;9.336;2023-03-13T17:19:00;17.90;84.20
37786;DHT22;23625;48.784;9.336;2023-03-13T17:21:30;17.60;87.70
37786;DHT22;23625;48.784;9.336;2023-03-13T17:23:57;17.60;88.30
37786;DHT22;23625;48.784;9.336;2023-03-13T17:26:27;17.50;90.80
37786;DHT22;23625;48.784;9.336;2023-03-13T17:28:55;17.40;91.40
37786;DHT22;23625;48.784;9.336;2023-03-13T17:31:22;17.20;92.70
37786;DHT22;23625;48.784;9.336;2023-03-13T17:33:48;16.90;94.30
37786;DHT22;23625;48.784;9.336;2023-03-13T17:36:21;16.70;96.30
37786;DHT22;23625;48.784;9.336;2023-03-13T17:38:49;16.70;97.00